sensor_id;sensor_type;location;lat;lon;timestamp;P1;durP1;ratioP1;P2;durP2;ratioP2
21593;SDS011;10959;51.328;7.322;2023-04-03T00:01:59;7.37;;;6.07;;
21593;SDS011;10959;51.328;7.322;2023-04-03T00:04:25;6.33;;;5.20;;
21593;SDS011;10959;51.328;7.322;2023-04-03T00:06:52;5.90;;;5.40;;
21593;SDS011;10959;51.328;7.322;2023-04-03T00:09:19;6.97;;;6.30;;
21593;SDS011;10959;51.328;7.322;2023-04-03T00:11:46;7.93;;;6.63;;
21593;SDS011;10959;51.328;7.322;2023-04-03T00:14:12;6.90;;;6.30;;
21593;SDS011;10959;51.328;7.322;2023-04-03T00:16:39;7.83;;;6.53;;
21593;SDS011;10959;51.328;7.322;2023-04-03T00:19:05;7.00;;;5.97;;
21593;SDS011;10959;51.328;7.322;2023-04-03T00:21:32;7.13;;;6.43;;
21593;SDS011;10959;51.328;7.322;2023-04-03T00:23:58;7.43;;;6.73;;
21593;SDS011;10959;51.328;7.322;2023-04-03T00:26:26;7.73;;;6.23;;
21593;SDS011;10959;51.328;7.322;2023-04-03T00:28:53;6.60;;;5.83;;
21593;SDS011;10959;51.328;7.322;2023-04-03T00:31:19;6.83;;;6.00;;
21593;SDS011;10959;51.328;7.322;2023-04-03T00:33:45;6.60;;;5.90;;
21593;SDS011;10959;51.328;7.322;2023-04-03T00:36:12;7.10;;;6.50;;
21593;SDS011;10959;51.328;7.322;2023-04-03T00:38:39;6.63;;;6.03;;
21593;SDS011;10959;51.328;7.322;2023-04-03T00:41:06;6.10;;;5.53;;
21593;SDS011;10959;51.328;7.322;2023-04-03T00:43:34;6.60;;;6.00;;
21593;SDS011;10959;51.328;7.322;2023-04-03T00:46:00;6.30;;;5.67;;
21593;SDS011;10959;51.328;7.322;2023-04-03T00:48:27;7.17;;;5.50;;
21593;SDS011;10959;51.328;7.322;2023-04-03T00:50:57;10.47;;;6.40;;
21593;SDS011;10959;51.328;7.322;2023-04-03T00:53:25;7.47;;;6.40;;
21593;SDS011;10959;51.328;7.322;2023-04-03T00:55:54;6.80;;;6.20;;
21593;SDS011;10959;51.328;7.322;2023-04-03T00:58:22;7.97;;;5.83;;
21593;SDS011;10959;51.328;7.322;2023-04-03T01:00:56;6.30;;;5.77;;
21593;SDS011;10959;51.328;7.322;2023-04-03T01:03:25;5.93;;;5.43;;
21593;SDS011;10959;51.328;7.322;2023-04-03T01:05:51;6.37;;;5.67;;
21593;SDS011;10959;51.328;7.322;2023-04-03T01:08:17;7.03;;;5.23;;
21593;SDS011;10959;51.328;7.322;2023-04-03T01:10:44;6.13;;;5.53;;
21593;SDS011;10959;51.328;7.322;2023-04-03T01:13:17;6.53;;;5.97;;
21593;SDS011;10959;51.328;7.322;2023-04-03T01:15:49;6.27;;;5.67;;
21593;SDS011;10959;51.328;7.322;2023-04-03T01:18:17;6.77;;;5.80;;
21593;SDS011;10959;51.328;7.322;2023-04-03T01:23:49;6.63;;;5.47;;
21593;SDS011;10959;51.328;7.322;2023-04-03T01:26:23;9.07;;;6.20;;
21593;SDS011;10959;51.328;7.322;2023-04-03T01:28:50;7.10;;;5.87;;
21593;SDS011;10959;51.328;7.322;2023-04-03T01:31:20;5.80;;;5.30;;
21593;SDS011;10959;51.328;7.322;2023-04-03T01:33:52;7.13;;;6.47;;
21593;SDS011;10959;51.328;7.322;2023-04-03T01:36:20;9.50;;;6.93;;
21593;SDS011;10959;51.328;7.322;2023-04-03T01:38:49;6.73;;;6.13;;
21593;SDS011;10959;51.328;7.322;2023-04-03T01:41:15;9.37;;;6.27;;
21593;SDS011;10959;51.328;7.322;2023-04-03T01:43:42;7.00;;;6.40;;
21593;SDS011;10959;51.328;7.322;2023-04-03T01:46:09;6.47;;;5.83;;
21593;SDS011;10959;51.328;7.322;2023-04-03T01:48:36;7.33;;;5.90;;
21593;SDS011;10959;51.328;7.322;2023-04-03T01:51:04;6.90;;;6.07;;
21593;SDS011;10959;51.328;7.322;2023-04-03T01:53:30;7.43;;;5.43;;
21593;SDS011;10959;51.328;7.322;2023-04-03T01:55:57;7.03;;;5.73;;
21593;SDS011;10959;51.328;7.322;2023-04-03T01:58:23;6.27;;;5.57;;
21593;SDS011;10959;51.328;7.322;2023-04-03T02:00:50;11.20;;;6.87;;
21593;SDS011;10959;51.328;7.322;2023-04-03T02:03:16;8.60;;;7.80;;
21593;SDS011;10959;51.328;7.322;2023-04-03T02:05:43;11.67;;;9.07;;
21593;SDS011;10959;51.328;7.322;2023-04-03T02:08:11;9.90;;;8.90;;
21593;SDS011;10959;51.328;7.322;2023-04-03T02:10:38;8.50;;;7.80;;
21593;SDS011;10959;51.328;7.322;2023-04-03T02:13:05;10.30;;;9.13;;
21593;SDS011;10959;51.328;7.322;2023-04-03T02:15:32;10.60;;;7.93;;
21593;SDS011;10959;51.328;7.322;2023-04-03T02:17:58;8.03;;;7.23;;
21593;SDS011;10959;51.328;7.322;2023-04-03T02:20:24;9.13;;;8.20;;
21593;SDS011;10959;51.328;7.322;2023-04-03T02:22:51;8.63;;;7.60;;
21593;SDS011;10959;51.328;7.322;2023-04-03T02:25:19;10.47;;;9.37;;
21593;SDS011;10959;51.328;7.322;2023-04-03T02:27:45;9.80;;;8.80;;
21593;SDS011;10959;51.328;7.322;2023-04-03T02:30:12;11.07;;;9.90;;
21593;SDS011;10959;51.328;7.322;2023-04-03T02:32:39;12.00;;;9.37;;
21593;SDS011;10959;51.328;7.322;2023-04-03T02:35:06;10.40;;;9.40;;
21593;SDS011;10959;51.328;7.322;2023-04-03T02:37:33;9.43;;;8.43;;
21593;SDS011;10959;51.328;7.322;2023-04-03T02:40:00;7.77;;;7.00;;
21593;SDS011;10959;51.328;7.322;2023-04-03T02:42:27;10.43;;;8.43;;
21593;SDS011;10959;51.328;7.322;2023-04-03T02:44:54;9.30;;;8.30;;
21593;SDS011;10959;51.328;7.322;2023-04-03T02:47:21;11.83;;;9.87;;
21593;SDS011;10959;51.328;7.322;2023-04-03T02:49:47;9.50;;;8.43;;
21593;SDS011;10959;51.328;7.322;2023-04-03T02:52:14;12.10;;;9.87;;
21593;SDS011;10959;51.328;7.322;2023-04-03T02:54:41;11.80;;;9.13;;
21593;SDS011;10959;51.328;7.322;2023-04-03T02:57:07;12.27;;;10.07;;
21593;SDS011;10959;51.328;7.322;2023-04-03T02:59:36;11.10;;;9.63;;
21593;SDS011;10959;51.328;7.322;2023-04-03T03:02:05;11.10;;;10.00;;
21593;SDS011;10959;51.328;7.322;2023-04-03T03:04:32;10.73;;;9.57;;
21593;SDS011;10959;51.328;7.322;2023-04-03T03:06:58;11.80;;;9.77;;
21593;SDS011;10959;51.328;7.322;2023-04-03T03:09:24;8.87;;;7.97;;
21593;SDS011;10959;51.328;7.322;2023-04-03T03:11:51;12.07;;;10.20;;
21593;SDS011;10959;51.328;7.322;2023-04-03T03:14:18;10.73;;;8.60;;
21593;SDS011;10959;51.328;7.322;2023-04-03T03:16:46;9.70;;;8.53;;
21593;SDS011;10959;51.328;7.322;2023-04-03T03:19:12;8.50;;;7.70;;
21593;SDS011;10959;51.328;7.322;2023-04-03T03:21:39;9.23;;;8.33;;
21593;SDS011;10959;51.328;7.322;2023-04-03T03:24:05;9.97;;;8.97;;
21593;SDS011;10959;51.328;7.322;2023-04-03T03:26:32;9.70;;;8.80;;
21593;SDS011;10959;51.328;7.322;2023-04-03T03:28:59;11.40;;;8.47;;
21593;SDS011;10959;51.328;7.322;2023-04-03T03:31:25;11.23;;;8.57;;
21593;SDS011;10959;51.328;7.322;2023-04-03T03:33:53;9.27;;;7.87;;
21593;SDS011;10959;51.328;7.322;2023-04-03T03:36:19;9.27;;;7.77;;
21593;SDS011;10959;51.328;7.322;2023-04-03T03:38:46;8.77;;;7.20;;
21593;SDS011;10959;51.328;7.322;2023-04-03T03:41:12;7.97;;;6.87;;
21593;SDS011;10959;51.328;7.322;2023-04-03T03:43:39;7.83;;;7.03;;
21593;SDS011;10959;51.328;7.322;2023-04-03T03:46:06;8.47;;;6.93;;
21593;SDS011;10959;51.328;7.322;2023-04-03T03:48:32;9.37;;;7.67;;
21593;SDS011;10959;51.328;7.322;2023-04-03T03:51:00;6.77;;;6.17;;
21593;SDS011;10959;51.328;7.322;2023-04-03T03:53:26;7.57;;;6.13;;
21593;SDS011;10959;51.328;7.322;2023-04-03T03:55:53;6.57;;;5.57;;
21593;SDS011;10959;51.328;7.322;2023-04-03T03:58:19;8.67;;;6.37;;
21593;SDS011;10959;51.328;7.322;2023-04-03T04:00:45;6.33;;;4.83;;
21593;SDS011;10959;51.328;7.322;2023-04-03T04:03:12;7.07;;;5.60;;
21593;SDS011;10959;51.328;7.322;2023-04-03T04:05:39;7.60;;;5.70;;
21593;SDS011;10959;51.328;7.322;2023-04-03T04:08:06;7.30;;;4.80;;
21593;SDS011;10959;51.328;7.322;2023-04-03T04:10:33;7.60;;;5.17;;
21593;SDS011;10959;51.328;7.322;2023-04-03T04:13:00;7.63;;;5.23;;
21593;SDS011;10959;51.328;7.322;2023-04-03T04:15:27;8.23;;;5.17;;
21593;SDS011;10959;51.328;7.322;2023-04-03T04:17:53;6.57;;;5.20;;
21593;SDS011;10959;51.328;7.322;2023-04-03T04:20:19;6.80;;;4.77;;
21593;SDS011;10959;51.328;7.322;2023-04-03T04:22:46;7.40;;;5.90;;
21593;SDS011;10959;51.328;7.322;2023-04-03T04:25:14;7.27;;;5.37;;
21593;SDS011;10959;51.328;7.322;2023-04-03T04:27:40;8.60;;;6.30;;
21593;SDS011;10959;51.328;7.322;2023-04-03T04:30:07;8.80;;;6.40;;
21593;SDS011;10959;51.328;7.322;2023-04-03T04:32:34;9.53;;;5.93;;
21593;SDS011;10959;51.328;7.322;2023-04-03T04:35:02;8.00;;;6.97;;
21593;SDS011;10959;51.328;7.322;2023-04-03T04:37:29;8.57;;;6.80;;
21593;SDS011;10959;51.328;7.322;2023-04-03T04:39:55;5.87;;;5.27;;
21593;SDS011;10959;51.328;7.322;2023-04-03T04:42:23;7.00;;;5.73;;
21593;SDS011;10959;51.328;7.322;2023-04-03T04:44:49;6.77;;;5.40;;
21593;SDS011;10959;51.328;7.322;2023-04-03T04:47:16;7.13;;;4.83;;
21593;SDS011;10959;51.328;7.322;2023-04-03T04:49:43;9.83;;;5.60;;
21593;SDS011;10959;51.328;7.322;2023-04-03T04:52:09;6.03;;;4.53;;
21593;SDS011;10959;51.328;7.322;2023-04-03T04:54:35;8.00;;;5.00;;
21593;SDS011;10959;51.328;7.322;2023-04-03T04:57:02;6.50;;;3.93;;
21593;SDS011;10959;51.328;7.322;2023-04-03T04:59:30;7.97;;;4.57;;
21593;SDS011;10959;51.328;7.322;2023-04-03T05:01:56;7.43;;;4.10;;
21593;SDS011;10959;51.328;7.322;2023-04-03T05:04:23;6.30;;;3.87;;
21593;SDS011;10959;51.328;7.322;2023-04-03T05:06:49;6.03;;;3.60;;
21593;SDS011;10959;51.328;7.322;2023-04-03T05:09:16;5.37;;;3.50;;
21593;SDS011;10959;51.328;7.322;2023-04-03T05:11:44;9.57;;;4.00;;
21593;SDS011;10959;51.328;7.322;2023-04-03T05:14:11;6.03;;;3.63;;
21593;SDS011;10959;51.328;7.322;2023-04-03T05:16:39;6.63;;;3.63;;
21593;SDS011;10959;51.328;7.322;2023-04-03T05:19:05;4.30;;;3.57;;
21593;SDS011;10959;51.328;7.322;2023-04-03T05:21:32;5.90;;;3.67;;
21593;SDS011;10959;51.328;7.322;2023-04-03T05:23:58;5.53;;;4.17;;
21593;SDS011;10959;51.328;7.322;2023-04-03T05:26:27;3.90;;;2.93;;
21593;SDS011;10959;51.328;7.322;2023-04-03T05:28:53;4.67;;;3.53;;
21593;SDS011;10959;51.328;7.322;2023-04-03T05:31:20;9.47;;;4.13;;
21593;SDS011;10959;51.328;7.322;2023-04-03T05:33:48;5.67;;;3.33;;
21593;SDS011;10959;51.328;7.322;2023-04-03T05:36:14;7.47;;;4.13;;
21593;SDS011;10959;51.328;7.322;2023-04-03T05:38:41;7.73;;;3.90;;
21593;SDS011;10959;51.328;7.322;2023-04-03T05:41:07;6.83;;;4.20;;
21593;SDS011;10959;51.328;7.322;2023-04-03T05:43:34;6.33;;;2.97;;
21593;SDS011;10959;51.328;7.322;2023-04-03T05:46:02;6.27;;;3.63;;
21593;SDS011;10959;51.328;7.322;2023-04-03T05:48:29;6.50;;;3.80;;
21593;SDS011;10959;51.328;7.322;2023-04-03T05:50:57;4.97;;;3.40;;
21593;SDS011;10959;51.328;7.322;2023-04-03T05:53:25;6.37;;;3.50;;
21593;SDS011;10959;51.328;7.322;2023-04-03T05:55:55;5.73;;;3.40;;
21593;SDS011;10959;51.328;7.322;2023-04-03T05:58:21;5.00;;;3.53;;
21593;SDS011;10959;51.328;7.322;2023-04-03T06:00:48;6.40;;;3.17;;
21593;SDS011;10959;51.328;7.322;2023-04-03T06:03:14;6.90;;;3.37;;
21593;SDS011;10959;51.328;7.322;2023-04-03T06:05:41;5.23;;;4.00;;
21593;SDS011;10959;51.328;7.322;2023-04-03T06:08:09;6.73;;;3.07;;
21593;SDS011;10959;51.328;7.322;2023-04-03T06:10:36;7.13;;;3.53;;
21593;SDS011;10959;51.328;7.322;2023-04-03T06:13:02;4.57;;;3.20;;
21593;SDS011;10959;51.328;7.322;2023-04-03T06:15:29;5.33;;;3.30;;
21593;SDS011;10959;51.328;7.322;2023-04-03T06:17:55;7.07;;;3.20;;
21593;SDS011;10959;51.328;7.322;2023-04-03T06:20:22;4.83;;;3.17;;
21593;SDS011;10959;51.328;7.322;2023-04-03T06:22:48;7.07;;;3.40;;
21593;SDS011;10959;51.328;7.322;2023-04-03T06:25:17;6.07;;;3.40;;
21593;SDS011;10959;51.328;7.322;2023-04-03T06:27:44;5.33;;;3.40;;
21593;SDS011;10959;51.328;7.322;2023-04-03T06:30:11;5.07;;;3.33;;
21593;SDS011;10959;51.328;7.322;2023-04-03T06:32:38;5.87;;;3.30;;
21593;SDS011;10959;51.328;7.322;2023-04-03T06:35:05;6.67;;;3.00;;
21593;SDS011;10959;51.328;7.322;2023-04-03T06:37:32;7.10;;;3.50;;
21593;SDS011;10959;51.328;7.322;2023-04-03T06:39:58;6.90;;;3.13;;
21593;SDS011;10959;51.328;7.322;2023-04-03T06:42:27;7.80;;;3.20;;
21593;SDS011;10959;51.328;7.322;2023-04-03T06:44:54;6.73;;;3.30;;
21593;SDS011;10959;51.328;7.322;2023-04-03T06:47:20;8.40;;;2.87;;
21593;SDS011;10959;51.328;7.322;2023-04-03T06:49:46;4.93;;;2.43;;
21593;SDS011;10959;51.328;7.322;2023-04-03T06:52:13;6.63;;;2.60;;
21593;SDS011;10959;51.328;7.322;2023-04-03T06:54:40;4.10;;;2.60;;
21593;SDS011;10959;51.328;7.322;2023-04-03T06:57:06;4.17;;;2.50;;
21593;SDS011;10959;51.328;7.322;2023-04-03T06:59:35;5.30;;;3.23;;
21593;SDS011;10959;51.328;7.322;2023-04-03T07:02:02;8.67;;;3.63;;
21593;SDS011;10959;51.328;7.322;2023-04-03T07:04:28;4.50;;;2.90;;
21593;SDS011;10959;51.328;7.322;2023-04-03T07:06:55;4.70;;;2.90;;
21593;SDS011;10959;51.328;7.322;2023-04-03T07:09:22;6.50;;;2.70;;
21593;SDS011;10959;51.328;7.322;2023-04-03T07:11:48;6.77;;;2.57;;
21593;SDS011;10959;51.328;7.322;2023-04-03T07:14:15;7.63;;;3.20;;
21593;SDS011;10959;51.328;7.322;2023-04-03T07:16:42;3.73;;;2.53;;
21593;SDS011;10959;51.328;7.322;2023-04-03T07:19:09;6.17;;;3.00;;
21593;SDS011;10959;51.328;7.322;2023-04-03T07:21:35;4.27;;;2.60;;
21593;SDS011;10959;51.328;7.322;2023-04-03T07:24:02;3.13;;;2.27;;
21593;SDS011;10959;51.328;7.322;2023-04-03T07:26:29;5.07;;;2.40;;
21593;SDS011;10959;51.328;7.322;2023-04-03T07:28:56;5.23;;;2.30;;
21593;SDS011;10959;51.328;7.322;2023-04-03T07:31:22;5.40;;;2.40;;
21593;SDS011;10959;51.328;7.322;2023-04-03T07:33:51;6.57;;;2.47;;
21593;SDS011;10959;51.328;7.322;2023-04-03T07:36:18;7.93;;;2.70;;
21593;SDS011;10959;51.328;7.322;2023-04-03T07:38:46;4.63;;;2.20;;
21593;SDS011;10959;51.328;7.322;2023-04-03T07:41:13;6.60;;;2.80;;
21593;SDS011;10959;51.328;7.322;2023-04-03T07:43:41;4.10;;;2.27;;
21593;SDS011;10959;51.328;7.322;2023-04-03T07:46:07;4.97;;;2.37;;
21593;SDS011;10959;51.328;7.322;2023-04-03T07:48:34;5.47;;;2.43;;
21593;SDS011;10959;51.328;7.322;2023-04-03T07:51:03;6.27;;;2.23;;
21593;SDS011;10959;51.328;7.322;2023-04-03T07:53:30;6.03;;;2.50;;
21593;SDS011;10959;51.328;7.322;2023-04-03T07:55:58;4.97;;;2.20;;
21593;SDS011;10959;51.328;7.322;2023-04-03T07:58:25;3.87;;;2.10;;
21593;SDS011;10959;51.328;7.322;2023-04-03T08:00:52;3.90;;;2.00;;
21593;SDS011;10959;51.328;7.322;2023-04-03T08:03:18;5.80;;;2.17;;
21593;SDS011;10959;51.328;7.322;2023-04-03T08:05:46;4.50;;;2.13;;
21593;SDS011;10959;51.328;7.322;2023-04-03T08:08:15;6.20;;;2.33;;
21593;SDS011;10959;51.328;7.322;2023-04-03T08:10:43;5.83;;;2.33;;
21593;SDS011;10959;51.328;7.322;2023-04-03T08:13:10;5.07;;;2.00;;
21593;SDS011;10959;51.328;7.322;2023-04-03T08:15:36;4.90;;;2.20;;
21593;SDS011;10959;51.328;7.322;2023-04-03T08:18:03;3.63;;;2.47;;
21593;SDS011;10959;51.328;7.322;2023-04-03T08:20:30;4.13;;;2.13;;
21593;SDS011;10959;51.328;7.322;2023-04-03T08:22:57;5.60;;;1.90;;
21593;SDS011;10959;51.328;7.322;2023-04-03T08:25:24;4.83;;;2.00;;
21593;SDS011;10959;51.328;7.322;2023-04-03T08:27:51;3.73;;;1.83;;
21593;SDS011;10959;51.328;7.322;2023-04-03T08:30:18;6.10;;;2.27;;
21593;SDS011;10959;51.328;7.322;2023-04-03T08:32:44;6.70;;;1.47;;
21593;SDS011;10959;51.328;7.322;2023-04-03T08:35:11;4.97;;;1.90;;
21593;SDS011;10959;51.328;7.322;2023-04-03T08:37:38;3.40;;;1.83;;
21593;SDS011;10959;51.328;7.322;2023-04-03T08:40:06;3.77;;;2.20;;
21593;SDS011;10959;51.328;7.322;2023-04-03T08:42:41;6.93;;;2.17;;
21593;SDS011;10959;51.328;7.322;2023-04-03T08:45:18;1.83;;;1.50;;
21593;SDS011;10959;51.328;7.322;2023-04-03T08:47:53;5.83;;;2.00;;
21593;SDS011;10959;51.328;7.322;2023-04-03T08:50:26;4.93;;;1.80;;
21593;SDS011;10959;51.328;7.322;2023-04-03T08:52:57;4.87;;;2.07;;
21593;SDS011;10959;51.328;7.322;2023-04-03T08:55:26;3.43;;;1.63;;
21593;SDS011;10959;51.328;7.322;2023-04-03T08:57:59;4.77;;;1.90;;
21593;SDS011;10959;51.328;7.322;2023-04-03T09:00:28;3.00;;;1.70;;
21593;SDS011;10959;51.328;7.322;2023-04-03T09:02:59;3.80;;;2.03;;
21593;SDS011;10959;51.328;7.322;2023-04-03T09:05:29;5.13;;;1.70;;
21593;SDS011;10959;51.328;7.322;2023-04-03T09:08:04;4.93;;;2.10;;
21593;SDS011;10959;51.328;7.322;2023-04-03T09:10:38;4.10;;;1.63;;
21593;SDS011;10959;51.328;7.322;2023-04-03T09:13:09;5.87;;;2.00;;
21593;SDS011;10959;51.328;7.322;2023-04-03T09:15:47;4.00;;;1.50;;
21593;SDS011;10959;51.328;7.322;2023-04-03T09:18:15;2.60;;;1.57;;
21593;SDS011;10959;51.328;7.322;2023-04-03T09:20:46;2.10;;;1.30;;
21593;SDS011;10959;51.328;7.322;2023-04-03T09:23:21;3.73;;;1.73;;
21593;SDS011;10959;51.328;7.322;2023-04-03T09:25:51;3.63;;;1.30;;
21593;SDS011;10959;51.328;7.322;2023-04-03T09:28:24;5.13;;;1.60;;
21593;SDS011;10959;51.328;7.322;2023-04-03T09:30:51;2.97;;;1.50;;
21593;SDS011;10959;51.328;7.322;2023-04-03T09:33:17;2.07;;;1.50;;
21593;SDS011;10959;51.328;7.322;2023-04-03T09:35:45;3.50;;;1.40;;
21593;SDS011;10959;51.328;7.322;2023-04-03T09:38:20;3.07;;;1.70;;
21593;SDS011;10959;51.328;7.322;2023-04-03T09:40:48;4.10;;;1.60;;
21593;SDS011;10959;51.328;7.322;2023-04-03T09:43:20;4.90;;;1.80;;
21593;SDS011;10959;51.328;7.322;2023-04-03T09:45:50;3.50;;;1.70;;
21593;SDS011;10959;51.328;7.322;2023-04-03T09:48:19;2.57;;;1.20;;
21593;SDS011;10959;51.328;7.322;2023-04-03T09:50:55;1.93;;;1.20;;
21593;SDS011;10959;51.328;7.322;2023-04-03T09:53:27;3.40;;;1.67;;
21593;SDS011;10959;51.328;7.322;2023-04-03T09:55:56;4.57;;;1.80;;
21593;SDS011;10959;51.328;7.322;2023-04-03T09:58:24;2.30;;;1.27;;
21593;SDS011;10959;51.328;7.322;2023-04-03T10:00:57;1.67;;;1.20;;
21593;SDS011;10959;51.328;7.322;2023-04-03T10:03:27;3.07;;;1.27;;
21593;SDS011;10959;51.328;7.322;2023-04-03T10:05:56;2.23;;;1.10;;
21593;SDS011;10959;51.328;7.322;2023-04-03T10:08:24;2.03;;;0.83;;
21593;SDS011;10959;51.328;7.322;2023-04-03T10:11:13;2.97;;;0.87;;
21593;SDS011;10959;51.328;7.322;2023-04-03T10:16:32;0.83;;;0.70;;
21593;SDS011;10959;51.328;7.322;2023-04-03T10:19:10;2.57;;;1.00;;
21593;SDS011;10959;51.328;7.322;2023-04-03T10:21:59;1.20;;;0.80;;
21593;SDS011;10959;51.328;7.322;2023-04-03T10:24:30;3.30;;;1.03;;
21593;SDS011;10959;51.328;7.322;2023-04-03T10:27:03;1.80;;;0.80;;
21593;SDS011;10959;51.328;7.322;2023-04-03T10:29:36;3.27;;;0.83;;
21593;SDS011;10959;51.328;7.322;2023-04-03T10:32:13;1.87;;;0.87;;
21593;SDS011;10959;51.328;7.322;2023-04-03T10:34:46;2.80;;;0.73;;
21593;SDS011;10959;51.328;7.322;2023-04-03T10:37:13;3.40;;;1.00;;
21593;SDS011;10959;51.328;7.322;2023-04-03T10:39:50;1.90;;;0.83;;
21593;SDS011;10959;51.328;7.322;2023-04-03T10:42:23;1.87;;;0.90;;
21593;SDS011;10959;51.328;7.322;2023-04-03T10:45:01;2.07;;;0.70;;
21593;SDS011;10959;51.328;7.322;2023-04-03T10:47:53;2.20;;;0.80;;
21593;SDS011;10959;51.328;7.322;2023-04-03T10:50:29;1.10;;;0.70;;
21593;SDS011;10959;51.328;7.322;2023-04-03T10:53:04;1.43;;;0.83;;
21593;SDS011;10959;51.328;7.322;2023-04-03T10:55:38;1.57;;;0.77;;
21593;SDS011;10959;51.328;7.322;2023-04-03T10:58:10;1.43;;;0.70;;
21593;SDS011;10959;51.328;7.322;2023-04-03T11:00:45;1.57;;;0.73;;
21593;SDS011;10959;51.328;7.322;2023-04-03T11:03:26;2.07;;;0.90;;
21593;SDS011;10959;51.328;7.322;2023-04-03T11:05:58;0.73;;;0.70;;
21593;SDS011;10959;51.328;7.322;2023-04-03T11:08:28;1.33;;;0.87;;
21593;SDS011;10959;51.328;7.322;2023-04-03T11:11:06;1.53;;;0.77;;
21593;SDS011;10959;51.328;7.322;2023-04-03T11:13:36;1.67;;;1.00;;
21593;SDS011;10959;51.328;7.322;2023-04-03T11:16:07;0.90;;;0.70;;
21593;SDS011;10959;51.328;7.322;2023-04-03T11:18:46;1.53;;;0.90;;
21593;SDS011;10959;51.328;7.322;2023-04-03T11:21:46;1.20;;;0.50;;
21593;SDS011;10959;51.328;7.322;2023-04-03T11:24:20;1.70;;;0.63;;
21593;SDS011;10959;51.328;7.322;2023-04-03T11:26:49;3.13;;;0.90;;
21593;SDS011;10959;51.328;7.322;2023-04-03T11:29:18;1.93;;;0.77;;
21593;SDS011;10959;51.328;7.322;2023-04-03T11:31:55;1.77;;;0.97;;
21593;SDS011;10959;51.328;7.322;2023-04-03T11:34:37;2.40;;;1.00;;
21593;SDS011;10959;51.328;7.322;2023-04-03T11:37:11;1.23;;;0.60;;
21593;SDS011;10959;51.328;7.322;2023-04-03T11:39:46;2.20;;;0.80;;
21593;SDS011;10959;51.328;7.322;2023-04-03T11:42:17;1.33;;;0.73;;
21593;SDS011;10959;51.328;7.322;2023-04-03T11:47:59;1.93;;;0.63;;
21593;SDS011;10959;51.328;7.322;2023-04-03T11:50:32;1.83;;;0.80;;
21593;SDS011;10959;51.328;7.322;2023-04-03T11:55:56;1.40;;;0.80;;
21593;SDS011;10959;51.328;7.322;2023-04-03T11:58:25;1.60;;;0.73;;
21593;SDS011;10959;51.328;7.322;2023-04-03T12:01:00;1.90;;;0.87;;
21593;SDS011;10959;51.328;7.322;2023-04-03T12:09:29;2.53;;;0.80;;
21593;SDS011;10959;51.328;7.322;2023-04-03T12:11:59;2.93;;;1.10;;
21593;SDS011;10959;51.328;7.322;2023-04-03T12:14:46;2.17;;;1.07;;
21593;SDS011;10959;51.328;7.322;2023-04-03T12:17:18;2.43;;;1.00;;
21593;SDS011;10959;51.328;7.322;2023-04-03T12:19:49;1.87;;;1.00;;
21593;SDS011;10959;51.328;7.322;2023-04-03T12:22:18;2.03;;;1.00;;
21593;SDS011;10959;51.328;7.322;2023-04-03T12:24:46;2.30;;;1.20;;
21593;SDS011;10959;51.328;7.322;2023-04-03T12:27:20;2.23;;;1.10;;
21593;SDS011;10959;51.328;7.322;2023-04-03T12:29:51;2.87;;;1.10;;
21593;SDS011;10959;51.328;7.322;2023-04-03T12:32:24;2.93;;;0.77;;
21593;SDS011;10959;51.328;7.322;2023-04-03T12:35:05;1.83;;;0.90;;
21593;SDS011;10959;51.328;7.322;2023-04-03T12:37:48;2.07;;;0.80;;
21593;SDS011;10959;51.328;7.322;2023-04-03T12:40:27;1.70;;;0.77;;
21593;SDS011;10959;51.328;7.322;2023-04-03T12:43:09;2.53;;;0.73;;
21593;SDS011;10959;51.328;7.322;2023-04-03T12:45:47;2.00;;;0.93;;
21593;SDS011;10959;51.328;7.322;2023-04-03T12:48:21;1.97;;;0.90;;
21593;SDS011;10959;51.328;7.322;2023-04-03T12:50:51;1.53;;;1.00;;
21593;SDS011;10959;51.328;7.322;2023-04-03T12:53:19;2.40;;;0.93;;
21593;SDS011;10959;51.328;7.322;2023-04-03T12:55:52;2.37;;;1.30;;
21593;SDS011;10959;51.328;7.322;2023-04-03T12:58:21;3.43;;;1.43;;
21593;SDS011;10959;51.328;7.322;2023-04-03T13:00:58;2.23;;;0.93;;
21593;SDS011;10959;51.328;7.322;2023-04-03T13:03:27;2.57;;;1.10;;
21593;SDS011;10959;51.328;7.322;2023-04-03T13:05:55;2.10;;;0.87;;
21593;SDS011;10959;51.328;7.322;2023-04-03T13:08:26;3.37;;;1.10;;
21593;SDS011;10959;51.328;7.322;2023-04-03T13:10:55;2.87;;;0.93;;
21593;SDS011;10959;51.328;7.322;2023-04-03T13:13:33;2.40;;;0.97;;
21593;SDS011;10959;51.328;7.322;2023-04-03T13:15:59;5.83;;;1.10;;
21593;SDS011;10959;51.328;7.322;2023-04-03T13:18:34;1.23;;;0.90;;
21593;SDS011;10959;51.328;7.322;2023-04-03T13:21:02;2.23;;;1.00;;
21593;SDS011;10959;51.328;7.322;2023-04-03T13:23:32;3.47;;;1.17;;
21593;SDS011;10959;51.328;7.322;2023-04-03T13:26:02;1.07;;;0.80;;
21593;SDS011;10959;51.328;7.322;2023-04-03T13:28:30;2.80;;;1.13;;
21593;SDS011;10959;51.328;7.322;2023-04-03T13:31:02;2.07;;;1.10;;
21593;SDS011;10959;51.328;7.322;2023-04-03T13:33:35;3.77;;;1.00;;
21593;SDS011;10959;51.328;7.322;2023-04-03T13:36:24;2.30;;;1.03;;
21593;SDS011;10959;51.328;7.322;2023-04-03T13:39:02;3.13;;;1.57;;
21593;SDS011;10959;51.328;7.322;2023-04-03T13:41:32;2.07;;;1.50;;
21593;SDS011;10959;51.328;7.322;2023-04-03T13:44:17;2.50;;;1.33;;
21593;SDS011;10959;51.328;7.322;2023-04-03T13:46:52;2.97;;;1.10;;
21593;SDS011;10959;51.328;7.322;2023-04-03T13:49:21;2.07;;;1.00;;
21593;SDS011;10959;51.328;7.322;2023-04-03T13:51:54;3.50;;;1.10;;
21593;SDS011;10959;51.328;7.322;2023-04-03T13:54:23;2.73;;;1.10;;
21593;SDS011;10959;51.328;7.322;2023-04-03T13:56:55;1.43;;;1.00;;
21593;SDS011;10959;51.328;7.322;2023-04-03T13:59:24;1.83;;;1.30;;
21593;SDS011;10959;51.328;7.322;2023-04-03T14:01:54;2.10;;;1.27;;
21593;SDS011;10959;51.328;7.322;2023-04-03T14:04:33;2.93;;;1.30;;
21593;SDS011;10959;51.328;7.322;2023-04-03T14:07:12;2.23;;;1.00;;
21593;SDS011;10959;51.328;7.322;2023-04-03T14:09:41;2.20;;;1.27;;
21593;SDS011;10959;51.328;7.322;2023-04-03T14:12:11;2.40;;;0.97;;
21593;SDS011;10959;51.328;7.322;2023-04-03T14:14:41;2.33;;;1.10;;
21593;SDS011;10959;51.328;7.322;2023-04-03T14:17:10;2.80;;;1.30;;
21593;SDS011;10959;51.328;7.322;2023-04-03T14:19:40;1.97;;;1.10;;
21593;SDS011;10959;51.328;7.322;2023-04-03T14:22:11;1.57;;;1.00;;
21593;SDS011;10959;51.328;7.322;2023-04-03T14:24:42;1.23;;;0.90;;
21593;SDS011;10959;51.328;7.322;2023-04-03T14:27:11;2.10;;;1.00;;
21593;SDS011;10959;51.328;7.322;2023-04-03T14:29:42;3.07;;;1.27;;
21593;SDS011;10959;51.328;7.322;2023-04-03T14:32:10;2.50;;;1.20;;
21593;SDS011;10959;51.328;7.322;2023-04-03T14:34:38;4.27;;;1.07;;
21593;SDS011;10959;51.328;7.322;2023-04-03T14:37:04;4.47;;;1.13;;
21593;SDS011;10959;51.328;7.322;2023-04-03T14:39:34;1.77;;;0.90;;
21593;SDS011;10959;51.328;7.322;2023-04-03T14:42:02;1.00;;;0.87;;
21593;SDS011;10959;51.328;7.322;2023-04-03T14:44:29;1.07;;;0.80;;
21593;SDS011;10959;51.328;7.322;2023-04-03T14:46:55;2.40;;;1.00;;
21593;SDS011;10959;51.328;7.322;2023-04-03T14:49:23;2.73;;;1.20;;
21593;SDS011;10959;51.328;7.322;2023-04-03T14:51:51;1.70;;;1.07;;
21593;SDS011;10959;51.328;7.322;2023-04-03T14:54:18;1.20;;;0.90;;
21593;SDS011;10959;51.328;7.322;2023-04-03T14:56:50;4.43;;;1.27;;
21593;SDS011;10959;51.328;7.322;2023-04-03T14:59:18;2.00;;;1.03;;
21593;SDS011;10959;51.328;7.322;2023-04-03T15:01:46;3.23;;;1.30;;
21593;SDS011;10959;51.328;7.322;2023-04-03T15:04:13;3.13;;;1.20;;
21593;SDS011;10959;51.328;7.322;2023-04-03T15:06:41;3.27;;;1.30;;
21593;SDS011;10959;51.328;7.322;2023-04-03T15:09:10;3.67;;;1.17;;
21593;SDS011;10959;51.328;7.322;2023-04-03T15:11:45;1.97;;;1.17;;
21593;SDS011;10959;51.328;7.322;2023-04-03T15:14:12;3.03;;;1.20;;
21593;SDS011;10959;51.328;7.322;2023-04-03T15:16:39;4.30;;;1.30;;
21593;SDS011;10959;51.328;7.322;2023-04-03T15:19:06;1.83;;;1.20;;